sensor_id;sensor_type;location;lat;lon;timestamp;temperature;humidity
37974;DHT22;23796;51.458;7.000;2023-06-04T00:02:02;14.30;56.20
37974;DHT22;23796;51.458;7.000;2023-06-04T00:04:28;14.30;55.90
37974;DHT22;23796;51.458;7.000;2023-06-04T00:06:54;14.30;55.90
37974;DHT22;23796;51.458;7.000;2023-06-04T00:09:20;14.30;55.70
37974;DHT22;23796;51.458;7.000;2023-06-04T00:11:50;14.30;55.70
37974;DHT22;23796;51.458;7.000;2023-06-04T00:14:18;14.30;55.70
37974;DHT22;23796;51.458;7.000;2023-06-04T00:16:48;14.20;55.90
37974;DHT22;23796;51.458;7.000;2023-06-04T00:19:16;14.20;56.10
37974;DHT22;23796;51.458;7.000;2023-06-04T00:21:42;14.20;56.40
37974;DHT22;23796;51.458;7.000;2023-06-04T00:24:07;14.10;56.70
37974;DHT22;23796;51.458;7.000;2023-06-04T00:26:33;14.00;56.90
37974;DHT22;23796;51.458;7.000;2023-06-04T00:29:00;14.00;57.00
37974;DHT22;23796;51.458;7.000;2023-06-04T00:31:27;13.90;57.30
37974;DHT22;23796;51.458;7.000;2023-06-04T00:33:55;13.90;57.40
37974;DHT22;23796;51.458;7.000;2023-06-04T00:36:23;13.80;57.50
37974;DHT22;23796;51.458;7.000;2023-06-04T00:38:49;13.80;57.90
37974;DHT22;23796;51.458;7.000;2023-06-04T00:41:17;13.80;58.00
37974;DHT22;23796;51.458;7.000;2023-06-04T00:43:45;13.70;58.40
37974;DHT22;23796;51.458;7.000;2023-06-04T00:46:22;13.60;58.70
37974;DHT22;23796;51.458;7.000;2023-06-04T00:48:50;13.50;59.20
37974;DHT22;23796;51.458;7.000;2023-06-04T00:51:16;13.40;60.10
37974;DHT22;23796;51.458;7.000;2023-06-04T00:53:44;13.30;60.60
37974;DHT22;23796;51.458;7.000;2023-06-04T00:56:10;13.20;61.00
37974;DHT22;23796;51.458;7.000;2023-06-04T00:58:39;13.10;61.40
37974;DHT22;23796;51.458;7.000;2023-06-04T01:01:15;13.10;61.30
37974;DHT22;23796;51.458;7.000;2023-06-04T01:03:49;13.20;61.20
37974;DHT22;23796;51.458;7.000;2023-06-04T01:08:58;13.10;61.40
37974;DHT22;23796;51.458;7.000;2023-06-04T01:11:38;13.10;61.70
37974;DHT22;23796;51.458;7.000;2023-06-04T01:14:06;13.10;62.00
37974;DHT22;23796;51.458;7.000;2023-06-04T01:16:43;13.00;62.30
37974;DHT22;23796;51.458;7.000;2023-06-04T01:25:05;13.00;63.40
37974;DHT22;23796;51.458;7.000;2023-06-04T01:27:35;13.00;64.30
37974;DHT22;23796;51.458;7.000;2023-06-04T01:30:02;12.90;64.80
37974;DHT22;23796;51.458;7.000;2023-06-04T01:32:31;12.90;65.20
37974;DHT22;23796;51.458;7.000;2023-06-04T01:34:59;12.90;65.30
37974;DHT22;23796;51.458;7.000;2023-06-04T01:37:25;12.80;66.00
37974;DHT22;23796;51.458;7.000;2023-06-04T01:39:51;12.80;66.20
37974;DHT22;23796;51.458;7.000;2023-06-04T01:42:17;12.80;66.70
37974;DHT22;23796;51.458;7.000;2023-06-04T01:44:42;12.70;67.10
37974;DHT22;23796;51.458;7.000;2023-06-04T01:47:08;12.70;66.90
37974;DHT22;23796;51.458;7.000;2023-06-04T01:49:36;12.70;67.10
37974;DHT22;23796;51.458;7.000;2023-06-04T01:52:06;12.60;67.60
37974;DHT22;23796;51.458;7.000;2023-06-04T01:54:32;12.60;67.60
37974;DHT22;23796;51.458;7.000;2023-06-04T01:56:59;12.60;68.10
37974;DHT22;23796;51.458;7.000;2023-06-04T01:59:31;12.60;68.70
37974;DHT22;23796;51.458;7.000;2023-06-04T02:01:59;12.60;69.30
37974;DHT22;23796;51.458;7.000;2023-06-04T02:04:29;12.60;69.60
37974;DHT22;23796;51.458;7.000;2023-06-04T02:06:55;12.60;69.80
37974;DHT22;23796;51.458;7.000;2023-06-04T02:09:22;12.50;70.60
37974;DHT22;23796;51.458;7.000;2023-06-04T02:11:47;12.50;70.40
37974;DHT22;23796;51.458;7.000;2023-06-04T02:14:13;12.50;70.50
37974;DHT22;23796;51.458;7.000;2023-06-04T02:16:38;12.60;70.70
37974;DHT22;23796;51.458;7.000;2023-06-04T02:19:11;12.50;70.90
37974;DHT22;23796;51.458;7.000;2023-06-04T02:21:38;12.50;71.00
37974;DHT22;23796;51.458;7.000;2023-06-04T02:24:03;12.50;71.20
37974;DHT22;23796;51.458;7.000;2023-06-04T02:26:29;12.50;71.40
37974;DHT22;23796;51.458;7.000;2023-06-04T02:28:55;12.40;71.40
37974;DHT22;23796;51.458;7.000;2023-06-04T02:31:20;12.40;71.60
37974;DHT22;23796;51.458;7.000;2023-06-04T02:33:49;12.30;71.70
37974;DHT22;23796;51.458;7.000;2023-06-04T02:36:17;12.40;71.70
37974;DHT22;23796;51.458;7.000;2023-06-04T02:38:45;12.40;71.80
37974;DHT22;23796;51.458;7.000;2023-06-04T02:41:13;12.40;71.90
37974;DHT22;23796;51.458;7.000;2023-06-04T02:43:43;12.30;72.00
37974;DHT22;23796;51.458;7.000;2023-06-04T02:46:09;12.30;72.10
37974;DHT22;23796;51.458;7.000;2023-06-04T02:48:35;12.30;72.10
37974;DHT22;23796;51.458;7.000;2023-06-04T02:51:02;12.30;72.20
37974;DHT22;23796;51.458;7.000;2023-06-04T02:53:30;12.30;72.30
37974;DHT22;23796;51.458;7.000;2023-06-04T02:55:56;12.30;72.40
37974;DHT22;23796;51.458;7.000;2023-06-04T02:58:22;12.30;72.70
37974;DHT22;23796;51.458;7.000;2023-06-04T03:00:52;12.20;72.90
37974;DHT22;23796;51.458;7.000;2023-06-04T03:03:20;12.20;73.10
37974;DHT22;23796;51.458;7.000;2023-06-04T03:05:48;12.10;73.30
37974;DHT22;23796;51.458;7.000;2023-06-04T03:08:14;12.10;73.40
37974;DHT22;23796;51.458;7.000;2023-06-04T03:10:40;12.10;73.60
37974;DHT22;23796;51.458;7.000;2023-06-04T03:13:06;12.10;73.60
37974;DHT22;23796;51.458;7.000;2023-06-04T03:15:36;12.10;73.60
37974;DHT22;23796;51.458;7.000;2023-06-04T03:18:04;12.10;73.70
37974;DHT22;23796;51.458;7.000;2023-06-04T03:20:32;11.90;74.60
37974;DHT22;23796;51.458;7.000;2023-06-04T03:23:03;11.90;74.70
37974;DHT22;23796;51.458;7.000;2023-06-04T03:25:33;11.90;74.80
37974;DHT22;23796;51.458;7.000;2023-06-04T03:27:59;11.80;74.90
37974;DHT22;23796;51.458;7.000;2023-06-04T03:30:27;11.90;74.90
37974;DHT22;23796;51.458;7.000;2023-06-04T03:32:52;11.90;74.90
37974;DHT22;23796;51.458;7.000;2023-06-04T03:35:18;11.90;74.90
37974;DHT22;23796;51.458;7.000;2023-06-04T03:37:43;11.90;75.00
37974;DHT22;23796;51.458;7.000;2023-06-04T03:40:09;11.90;75.20
37974;DHT22;23796;51.458;7.000;2023-06-04T03:42:35;11.80;75.20
37974;DHT22;23796;51.458;7.000;2023-06-04T03:45:05;11.80;75.20
37974;DHT22;23796;51.458;7.000;2023-06-04T03:47:31;11.90;75.20
37974;DHT22;23796;51.458;7.000;2023-06-04T03:49:59;11.90;75.30
37974;DHT22;23796;51.458;7.000;2023-06-04T03:52:25;11.90;75.40
37974;DHT22;23796;51.458;7.000;2023-06-04T03:54:50;11.80;75.50
37974;DHT22;23796;51.458;7.000;2023-06-04T03:57:18;11.90;75.60
37974;DHT22;23796;51.458;7.000;2023-06-04T03:59:44;11.90;75.50
37974;DHT22;23796;51.458;7.000;2023-06-04T04:02:09;11.90;75.50
37974;DHT22;23796;51.458;7.000;2023-06-04T04:04:35;11.90;75.70
37974;DHT22;23796;51.458;7.000;2023-06-04T04:07:00;11.80;76.30
37974;DHT22;23796;51.458;7.000;2023-06-04T04:09:28;11.70;76.90
37974;DHT22;23796;51.458;7.000;2023-06-04T04:11:54;11.60;77.10
37974;DHT22;23796;51.458;7.000;2023-06-04T04:14:20;11.60;77.50
37974;DHT22;23796;51.458;7.000;2023-06-04T04:16:46;11.50;77.50
37974;DHT22;23796;51.458;7.000;2023-06-04T04:19:12;11.60;77.10
37974;DHT22;23796;51.458;7.000;2023-06-04T04:21:40;11.70;77.10
37974;DHT22;23796;51.458;7.000;2023-06-04T04:24:08;11.70;76.60
37974;DHT22;23796;51.458;7.000;2023-06-04T04:26:35;11.70;76.50
37974;DHT22;23796;51.458;7.000;2023-06-04T04:29:03;11.80;76.50
37974;DHT22;23796;51.458;7.000;2023-06-04T04:31:31;11.80;76.40
37974;DHT22;23796;51.458;7.000;2023-06-04T04:34:01;11.90;76.30
37974;DHT22;23796;51.458;7.000;2023-06-04T04:36:36;11.90;76.40
37974;DHT22;23796;51.458;7.000;2023-06-04T04:39:01;11.90;76.10
37974;DHT22;23796;51.458;7.000;2023-06-04T04:41:29;12.00;76.00
37974;DHT22;23796;51.458;7.000;2023-06-04T04:44:03;12.00;76.10
37974;DHT22;23796;51.458;7.000;2023-06-04T04:46:28;11.90;76.10
37974;DHT22;23796;51.458;7.000;2023-06-04T04:48:56;12.00;76.10
37974;DHT22;23796;51.458;7.000;2023-06-04T04:51:22;12.10;75.50
37974;DHT22;23796;51.458;7.000;2023-06-04T04:53:48;12.10;75.30
37974;DHT22;23796;51.458;7.000;2023-06-04T04:56:14;12.20;75.00
37974;DHT22;23796;51.458;7.000;2023-06-04T04:58:42;12.20;74.80
37974;DHT22;23796;51.458;7.000;2023-06-04T05:01:07;12.20;74.80
37974;DHT22;23796;51.458;7.000;2023-06-04T05:03:33;12.30;75.00
37974;DHT22;23796;51.458;7.000;2023-06-04T05:06:06;12.30;75.10
37974;DHT22;23796;51.458;7.000;2023-06-04T05:08:31;12.30;75.00
37974;DHT22;23796;51.458;7.000;2023-06-04T05:10:59;12.30;75.20
37974;DHT22;23796;51.458;7.000;2023-06-04T05:13:24;12.20;75.10
37974;DHT22;23796;51.458;7.000;2023-06-04T05:15:50;12.30;75.10
37974;DHT22;23796;51.458;7.000;2023-06-04T05:18:18;12.30;75.10
37974;DHT22;23796;51.458;7.000;2023-06-04T05:20:46;12.40;74.90
37974;DHT22;23796;51.458;7.000;2023-06-04T05:23:14;12.50;74.50
37974;DHT22;23796;51.458;7.000;2023-06-04T05:25:40;12.50;74.20
37974;DHT22;23796;51.458;7.000;2023-06-04T05:28:06;12.60;74.10
37974;DHT22;23796;51.458;7.000;2023-06-04T05:30:32;12.70;73.90
37974;DHT22;23796;51.458;7.000;2023-06-04T05:33:01;12.70;73.50
37974;DHT22;23796;51.458;7.000;2023-06-04T05:35:31;12.80;73.10
37974;DHT22;23796;51.458;7.000;2023-06-04T05:37:58;12.90;73.10
37974;DHT22;23796;51.458;7.000;2023-06-04T05:40:30;12.90;72.70
37974;DHT22;23796;51.458;7.000;2023-06-04T05:42:56;13.00;72.60
37974;DHT22;23796;51.458;7.000;2023-06-04T05:45:26;12.90;72.40
37974;DHT22;23796;51.458;7.000;2023-06-04T05:47:53;12.80;73.10
37974;DHT22;23796;51.458;7.000;2023-06-04T05:50:21;12.90;72.70
37974;DHT22;23796;51.458;7.000;2023-06-04T05:52:47;13.00;72.50
37974;DHT22;23796;51.458;7.000;2023-06-04T05:55:15;13.10;71.80
37974;DHT22;23796;51.458;7.000;2023-06-04T05:57:42;13.10;71.00
37974;DHT22;23796;51.458;7.000;2023-06-04T06:00:08;13.20;70.60
37974;DHT22;23796;51.458;7.000;2023-06-04T06:02:39;13.30;70.10
37974;DHT22;23796;51.458;7.000;2023-06-04T06:05:07;13.30;69.80
37974;DHT22;23796;51.458;7.000;2023-06-04T06:07:34;13.40;69.50
37974;DHT22;23796;51.458;7.000;2023-06-04T06:09:59;13.50;69.10
37974;DHT22;23796;51.458;7.000;2023-06-04T06:12:25;13.50;69.10
37974;DHT22;23796;51.458;7.000;2023-06-04T06:14:53;13.50;68.70
37974;DHT22;23796;51.458;7.000;2023-06-04T06:17:19;13.50;68.80
37974;DHT22;23796;51.458;7.000;2023-06-04T06:19:49;13.50;68.50
37974;DHT22;23796;51.458;7.000;2023-06-04T06:22:17;13.70;67.70
37974;DHT22;23796;51.458;7.000;2023-06-04T06:24:48;13.80;67.10
37974;DHT22;23796;51.458;7.000;2023-06-04T06:27:21;13.90;66.70
37974;DHT22;23796;51.458;7.000;2023-06-04T06:29:46;14.00;66.50
37974;DHT22;23796;51.458;7.000;2023-06-04T06:32:16;14.10;66.30
37974;DHT22;23796;51.458;7.000;2023-06-04T06:34:42;14.20;66.50
37974;DHT22;23796;51.458;7.000;2023-06-04T06:37:08;14.20;66.00
37974;DHT22;23796;51.458;7.000;2023-06-04T06:39:33;14.30;65.80
37974;DHT22;23796;51.458;7.000;2023-06-04T06:42:01;14.30;64.60
37974;DHT22;23796;51.458;7.000;2023-06-04T06:44:27;14.20;64.80
37974;DHT22;23796;51.458;7.000;2023-06-04T06:46:52;14.20;65.60
37974;DHT22;23796;51.458;7.000;2023-06-04T06:49:18;14.40;65.40
37974;DHT22;23796;51.458;7.000;2023-06-04T06:51:43;14.40;65.00
37974;DHT22;23796;51.458;7.000;2023-06-04T06:54:14;14.50;65.00
37974;DHT22;23796;51.458;7.000;2023-06-04T06:56:41;14.60;64.40
37974;DHT22;23796;51.458;7.000;2023-06-04T06:59:09;14.60;64.40
37974;DHT22;23796;51.458;7.000;2023-06-04T07:01:37;14.70;64.50
37974;DHT22;23796;51.458;7.000;2023-06-04T07:04:09;14.80;63.20
37974;DHT22;23796;51.458;7.000;2023-06-04T07:06:35;14.90;62.90
37974;DHT22;23796;51.458;7.000;2023-06-04T07:09:03;14.90;62.60
37974;DHT22;23796;51.458;7.000;2023-06-04T07:11:31;15.00;62.80
37974;DHT22;23796;51.458;7.000;2023-06-04T07:13:56;15.00;62.80
37974;DHT22;23796;51.458;7.000;2023-06-04T07:16:22;15.10;62.40
37974;DHT22;23796;51.458;7.000;2023-06-04T07:18:49;15.10;62.60
37974;DHT22;23796;51.458;7.000;2023-06-04T07:21:17;15.20;61.50
37974;DHT22;23796;51.458;7.000;2023-06-04T07:23:45;15.30;61.60
37974;DHT22;23796;51.458;7.000;2023-06-04T07:26:15;15.40;62.10
37974;DHT22;23796;51.458;7.000;2023-06-04T07:28:43;15.50;62.20
37974;DHT22;23796;51.458;7.000;2023-06-04T07:31:09;15.60;62.10
37974;DHT22;23796;51.458;7.000;2023-06-04T07:33:35;15.70;61.00
37974;DHT22;23796;51.458;7.000;2023-06-04T07:36:17;15.70;60.80
37974;DHT22;23796;51.458;7.000;2023-06-04T07:38:43;15.90;60.30
37974;DHT22;23796;51.458;7.000;2023-06-04T07:41:11;16.00;59.30
37974;DHT22;23796;51.458;7.000;2023-06-04T07:43:37;16.00;58.50
37974;DHT22;23796;51.458;7.000;2023-06-04T07:46:04;16.00;59.10
37974;DHT22;23796;51.458;7.000;2023-06-04T07:48:31;16.20;59.20
37974;DHT22;23796;51.458;7.000;2023-06-04T07:51:02;16.30;58.50
37974;DHT22;23796;51.458;7.000;2023-06-04T07:53:30;16.40;58.60
37974;DHT22;23796;51.458;7.000;2023-06-04T07:55:57;16.40;58.20
37974;DHT22;23796;51.458;7.000;2023-06-04T07:58:22;16.50;58.80
37974;DHT22;23796;51.458;7.000;2023-06-04T08:00:50;16.60;57.20
37974;DHT22;23796;51.458;7.000;2023-06-04T08:03:16;16.70;57.80
37974;DHT22;23796;51.458;7.000;2023-06-04T08:05:44;16.70;58.20
37974;DHT22;23796;51.458;7.000;2023-06-04T08:08:12;16.80;59.00
37974;DHT22;23796;51.458;7.000;2023-06-04T08:10:39;16.80;57.90
37974;DHT22;23796;51.458;7.000;2023-06-04T08:13:05;16.90;57.60
37974;DHT22;23796;51.458;7.000;2023-06-04T08:15:34;17.00;57.90
37974;DHT22;23796;51.458;7.000;2023-06-04T08:17:59;17.00;57.20
37974;DHT22;23796;51.458;7.000;2023-06-04T08:20:25;17.10;56.70
37974;DHT22;23796;51.458;7.000;2023-06-04T08:22:51;17.20;57.10
37974;DHT22;23796;51.458;7.000;2023-06-04T08:25:21;17.30;56.10
37974;DHT22;23796;51.458;7.000;2023-06-04T08:27:47;17.40;55.80
37974;DHT22;23796;51.458;7.000;2023-06-04T08:30:14;17.50;55.30
37974;DHT22;23796;51.458;7.000;2023-06-04T08:32:40;17.60;55.90
37974;DHT22;23796;51.458;7.000;2023-06-04T08:35:09;17.70;55.80
37974;DHT22;23796;51.458;7.000;2023-06-04T08:37:35;17.70;55.80
37974;DHT22;23796;51.458;7.000;2023-06-04T08:40:01;17.70;55.60
37974;DHT22;23796;51.458;7.000;2023-06-04T08:42:35;17.80;56.30
37974;DHT22;23796;51.458;7.000;2023-06-04T08:45:10;17.90;55.40
37974;DHT22;23796;51.458;7.000;2023-06-04T08:47:50;18.00;54.70
37974;DHT22;23796;51.458;7.000;2023-06-04T08:50:23;18.00;54.90
37974;DHT22;23796;51.458;7.000;2023-06-04T08:52:53;18.10;54.90
37974;DHT22;23796;51.458;7.000;2023-06-04T08:55:22;18.20;54.90
37974;DHT22;23796;51.458;7.000;2023-06-04T08:57:53;18.30;55.20
37974;DHT22;23796;51.458;7.000;2023-06-04T09:00:19;18.30;55.80
37974;DHT22;23796;51.458;7.000;2023-06-04T09:02:46;18.40;54.20
37974;DHT22;23796;51.458;7.000;2023-06-04T09:05:20;18.50;54.40
37974;DHT22;23796;51.458;7.000;2023-06-04T09:07:52;18.50;53.10
37974;DHT22;23796;51.458;7.000;2023-06-04T09:10:22;18.60;53.40
37974;DHT22;23796;51.458;7.000;2023-06-04T09:12:49;18.70;53.50
37974;DHT22;23796;51.458;7.000;2023-06-04T09:15:16;18.80;52.30
37974;DHT22;23796;51.458;7.000;2023-06-04T09:17:44;18.80;51.70
37974;DHT22;23796;51.458;7.000;2023-06-04T09:20:23;18.90;51.20
37974;DHT22;23796;51.458;7.000;2023-06-04T09:22:48;19.00;50.60
37974;DHT22;23796;51.458;7.000;2023-06-04T09:25:25;19.10;51.40
37974;DHT22;23796;51.458;7.000;2023-06-04T09:27:51;19.20;50.80
37974;DHT22;23796;51.458;7.000;2023-06-04T09:30:21;19.20;51.80
37974;DHT22;23796;51.458;7.000;2023-06-04T09:32:49;19.30;49.10
37974;DHT22;23796;51.458;7.000;2023-06-04T09:35:18;19.30;49.60
37974;DHT22;23796;51.458;7.000;2023-06-04T09:37:54;19.40;48.40
37974;DHT22;23796;51.458;7.000;2023-06-04T09:40:21;19.50;48.10
37974;DHT22;23796;51.458;7.000;2023-06-04T09:42:48;19.50;48.60
37974;DHT22;23796;51.458;7.000;2023-06-04T09:45:33;19.70;48.00
37974;DHT22;23796;51.458;7.000;2023-06-04T09:48:00;19.80;48.10
37974;DHT22;23796;51.458;7.000;2023-06-04T09:50:34;19.80;48.10
37974;DHT22;23796;51.458;7.000;2023-06-04T09:53:16;19.80;47.80
37974;DHT22;23796;51.458;7.000;2023-06-04T09:55:42;20.00;48.40
37974;DHT22;23796;51.458;7.000;2023-06-04T09:58:13;20.10;47.80
37974;DHT22;23796;51.458;7.000;2023-06-04T10:00:43;20.20;45.80
37974;DHT22;23796;51.458;7.000;2023-06-04T10:03:14;20.20;44.30
37974;DHT22;23796;51.458;7.000;2023-06-04T10:05:41;20.20;43.90
37974;DHT22;23796;51.458;7.000;2023-06-04T10:08:11;20.20;44.10
37974;DHT22;23796;51.458;7.000;2023-06-04T10:10:39;20.30;42.80
37974;DHT22;23796;51.458;7.000;2023-06-04T10:13:18;20.40;42.80
37974;DHT22;23796;51.458;7.000;2023-06-04T10:15:46;20.50;43.20
37974;DHT22;23796;51.458;7.000;2023-06-04T10:18:14;20.60;43.50
37974;DHT22;23796;51.458;7.000;2023-06-04T10:20:41;20.60;43.60
37974;DHT22;23796;51.458;7.000;2023-06-04T10:23:07;20.60;43.40
37974;DHT22;23796;51.458;7.000;2023-06-04T10:25:35;20.60;43.80
37974;DHT22;23796;51.458;7.000;2023-06-04T10:28:04;20.80;43.00
37974;DHT22;23796;51.458;7.000;2023-06-04T10:30:32;20.60;43.20
37974;DHT22;23796;51.458;7.000;2023-06-04T10:32:58;20.70;43.80
37974;DHT22;23796;51.458;7.000;2023-06-04T10:35:31;20.80;43.40
37974;DHT22;23796;51.458;7.000;2023-06-04T10:40:32;21.10;42.40
37974;DHT22;23796;51.458;7.000;2023-06-04T10:43:07;21.20;43.60
37974;DHT22;23796;51.458;7.000;2023-06-04T10:45:36;21.10;43.20
37974;DHT22;23796;51.458;7.000;2023-06-04T10:48:09;20.90;43.40
37974;DHT22;23796;51.458;7.000;2023-06-04T10:50:50;21.00;43.90
37974;DHT22;23796;51.458;7.000;2023-06-04T10:53:17;21.20;44.80
37974;DHT22;23796;51.458;7.000;2023-06-04T10:55:45;21.30;42.10
37974;DHT22;23796;51.458;7.000;2023-06-04T10:58:12;21.40;42.10
37974;DHT22;23796;51.458;7.000;2023-06-04T11:00:41;21.40;42.30
37974;DHT22;23796;51.458;7.000;2023-06-04T11:03:09;21.40;41.70
37974;DHT22;23796;51.458;7.000;2023-06-04T11:05:42;21.30;41.40
37974;DHT22;23796;51.458;7.000;2023-06-04T11:08:08;21.40;42.40
37974;DHT22;23796;51.458;7.000;2023-06-04T11:10:37;21.50;42.50
37974;DHT22;23796;51.458;7.000;2023-06-04T11:13:04;21.60;41.40
37974;DHT22;23796;51.458;7.000;2023-06-04T11:15:43;21.70;41.00
37974;DHT22;23796;51.458;7.000;2023-06-04T11:18:20;21.80;41.60
37974;DHT22;23796;51.458;7.000;2023-06-04T11:20:50;21.80;40.80
37974;DHT22;23796;51.458;7.000;2023-06-04T11:23:16;21.60;41.10
37974;DHT22;23796;51.458;7.000;2023-06-04T11:25:44;21.50;41.10
37974;DHT22;23796;51.458;7.000;2023-06-04T11:28:17;21.70;41.70
37974;DHT22;23796;51.458;7.000;2023-06-04T11:31:03;21.90;40.90
37974;DHT22;23796;51.458;7.000;2023-06-04T11:33:29;22.00;40.60
37974;DHT22;23796;51.458;7.000;2023-06-04T11:35:55;22.10;39.90
37974;DHT22;23796;51.458;7.000;2023-06-04T11:38:21;21.80;38.60
37974;DHT22;23796;51.458;7.000;2023-06-04T11:40:58;21.60;39.80
37974;DHT22;23796;51.458;7.000;2023-06-04T11:43:23;21.70;40.20
37974;DHT22;23796;51.458;7.000;2023-06-04T11:45:50;21.90;41.10
37974;DHT22;23796;51.458;7.000;2023-06-04T11:48:16;22.10;41.60
37974;DHT22;23796;51.458;7.000;2023-06-04T11:50:42;22.10;41.80
37974;DHT22;23796;51.458;7.000;2023-06-04T11:53:07;22.30;41.80
37974;DHT22;23796;51.458;7.000;2023-06-04T11:55:33;22.30;41.10
37974;DHT22;23796;51.458;7.000;2023-06-04T11:57:59;22.40;41.50
37974;DHT22;23796;51.458;7.000;2023-06-04T12:00:25;22.40;40.40
37974;DHT22;23796;51.458;7.000;2023-06-04T12:02:53;22.40;41.30
37974;DHT22;23796;51.458;7.000;2023-06-04T12:05:22;22.50;41.30
37974;DHT22;23796;51.458;7.000;2023-06-04T12:07:51;22.60;40.80
37974;DHT22;23796;51.458;7.000;2023-06-04T12:10:23;22.70;41.00
37974;DHT22;23796;51.458;7.000;2023-06-04T12:12:55;22.80;39.40
37974;DHT22;23796;51.458;7.000;2023-06-04T12:15:21;22.90;39.60
37974;DHT22;23796;51.458;7.000;2023-06-04T12:17:53;22.90;39.90
37974;DHT22;23796;51.458;7.000;2023-06-04T12:20:32;23.00;40.40
37974;DHT22;23796;51.458;7.000;2023-06-04T12:22:58;22.80;39.70
37974;DHT22;23796;51.458;7.000;2023-06-04T12:25:29;22.80;40.00
37974;DHT22;23796;51.458;7.000;2023-06-04T12:27:56;22.80;40.70
37974;DHT22;23796;51.458;7.000;2023-06-04T12:30:22;23.00;40.10
37974;DHT22;23796;51.458;7.000;2023-06-04T12:32:48;22.90;39.90
37974;DHT22;23796;51.458;7.000;2023-06-04T12:35:14;22.90;40.00
37974;DHT22;23796;51.458;7.000;2023-06-04T12:37:41;23.00;38.90
37974;DHT22;23796;51.458;7.000;2023-06-04T12:40:10;22.70;38.40
37974;DHT22;23796;51.458;7.000;2023-06-04T12:42:38;22.80;37.80
37974;DHT22;23796;51.458;7.000;2023-06-04T12:45:07;22.90;37.90
37974;DHT22;23796;51.458;7.000;2023-06-04T12:47:36;23.10;37.90
37974;DHT22;23796;51.458;7.000;2023-06-04T12:50:04;23.20;38.30
37974;DHT22;23796;51.458;7.000;2023-06-04T12:52:29;23.30;37.80
37974;DHT22;23796;51.458;7.000;2023-06-04T12:54:55;23.30;37.70
37974;DHT22;23796;51.458;7.000;2023-06-04T12:57:24;23.40;37.90
37974;DHT22;23796;51.458;7.000;2023-06-04T12:59:51;23.40;38.30
37974;DHT22;23796;51.458;7.000;2023-06-04T13:02:17;23.50;38.60
37974;DHT22;23796;51.458;7.000;2023-06-04T13:04:45;23.60;38.20
37974;DHT22;23796;51.458;7.000;2023-06-04T13:07:11;23.60;38.40
37974;DHT22;23796;51.458;7.000;2023-06-04T13:09:37;23.70;38.10
37974;DHT22;23796;51.458;7.000;2023-06-04T13:12:05;23.70;38.20
37974;DHT22;23796;51.458;7.000;2023-06-04T13:14:31;23.80;38.80
37974;DHT22;23796;51.458;7.000;2023-06-04T13:16:59;23.80;38.00
37974;DHT22;23796;51.458;7.000;2023-06-04T13:19:27;23.60;39.10
37974;DHT22;23796;51.458;7.000;2023-06-04T13:21:53;23.70;38.90
37974;DHT22;23796;51.458;7.000;2023-06-04T13:24:22;23.60;38.70
37974;DHT22;23796;51.458;7.000;2023-06-04T13:26:50;23.60;38.40
37974;DHT22;23796;51.458;7.000;2023-06-04T13:29:18;23.60;38.70
37974;DHT22;23796;51.458;7.000;2023-06-04T13:31:47;23.50;37.50
37974;DHT22;23796;51.458;7.000;2023-06-04T13:34:13;23.30;38.20
37974;DHT22;23796;51.458;7.000;2023-06-04T13:36:39;23.70;39.20
37974;DHT22;23796;51.458;7.000;2023-06-04T13:39:04;23.80;36.60
37974;DHT22;23796;51.458;7.000;2023-06-04T13:41:30;23.90;36.50
37974;DHT22;23796;51.458;7.000;2023-06-04T13:44:00;23.90;36.70
37974;DHT22;23796;51.458;7.000;2023-06-04T13:46:26;24.00;36.90
37974;DHT22;23796;51.458;7.000;2023-06-04T13:48:54;24.10;37.20
37974;DHT22;23796;51.458;7.000;2023-06-04T13:51:20;24.00;36.40
37974;DHT22;23796;51.458;7.000;2023-06-04T13:53:46;23.80;36.50
37974;DHT22;23796;51.458;7.000;2023-06-04T13:56:11;23.80;37.60
37974;DHT22;23796;51.458;7.000;2023-06-04T13:58:41;24.10;38.00
37974;DHT22;23796;51.458;7.000;2023-06-04T14:01:07;24.20;36.70
37974;DHT22;23796;51.458;7.000;2023-06-04T14:03:35;24.40;35.10
37974;DHT22;23796;51.458;7.000;2023-06-04T14:06:01;24.40;35.90
37974;DHT22;23796;51.458;7.000;2023-06-04T14:08:26;24.40;36.50
37974;DHT22;23796;51.458;7.000;2023-06-04T14:10:57;24.30;36.20
37974;DHT22;23796;51.458;7.000;2023-06-04T14:13:22;24.40;36.90
37974;DHT22;23796;51.458;7.000;2023-06-04T14:15:48;24.50;36.60
37974;DHT22;23796;51.458;7.000;2023-06-04T14:18:16;24.50;36.10
37974;DHT22;23796;51.458;7.000;2023-06-04T14:20:44;24.30;36.80
37974;DHT22;23796;51.458;7.000;2023-06-04T14:23:10;24.40;36.30
37974;DHT22;23796;51.458;7.000;2023-06-04T14:25:40;24.50;36.70
37974;DHT22;23796;51.458;7.000;2023-06-04T14:28:08;24.50;36.20
37974;DHT22;23796;51.458;7.000;2023-06-04T14:30:38;24.50;36.20
37974;DHT22;23796;51.458;7.000;2023-06-04T14:33:04;24.50;35.90
37974;DHT22;23796;51.458;7.000;2023-06-04T14:35:32;24.50;35.90
37974;DHT22;23796;51.458;7.000;2023-06-04T14:37:57;24.50;36.40
37974;DHT22;23796;51.458;7.000;2023-06-04T14:40:23;24.50;36.10
37974;DHT22;23796;51.458;7.000;2023-06-04T14:42:51;24.50;35.50
37974;DHT22;23796;51.458;7.000;2023-06-04T14:45:16;24.50;35.70
37974;DHT22;23796;51.458;7.000;2023-06-04T14:47:42;24.40;36.10
37974;DHT22;23796;51.458;7.000;2023-06-04T14:50:08;24.50;35.50
37974;DHT22;23796;51.458;7.000;2023-06-04T14:52:34;24.30;35.20
37974;DHT22;23796;51.458;7.000;2023-06-04T14:54:59;24.40;35.50
37974;DHT22;23796;51.458;7.000;2023-06-04T14:57:27;24.20;35.70
37974;DHT22;23796;51.458;7.000;2023-06-04T14:59:57;24.50;36.30
37974;DHT22;23796;51.458;7.000;2023-06-04T15:02:23;24.50;35.30
37974;DHT22;23796;51.458;7.000;2023-06-04T15:04:48;24.30;35.40
37974;DHT22;23796;51.458;7.000;2023-06-04T15:07:14;24.50;35.20
37974;DHT22;23796;51.458;7.000;2023-06-04T15:09:40;24.60;34.60
37974;DHT22;23796;51.458;7.000;2023-06-04T15:12:08;24.30;35.40
37974;DHT22;23796;51.458;7.000;2023-06-04T15:14:33;24.50;35.40
37974;DHT22;23796;51.458;7.000;2023-06-04T15:17:01;24.70;35.70
37974;DHT22;23796;51.458;7.000;2023-06-04T15:19:27;24.60;35.80
37974;DHT22;23796;51.458;7.000;2023-06-04T15:21:55;24.10;36.90
37974;DHT22;23796;51.458;7.000;2023-06-04T15:24:22;23.90;37.30
37974;DHT22;23796;51.458;7.000;2023-06-04T15:26:49;24.10;37.70
37974;DHT22;23796;51.458;7.000;2023-06-04T15:29:17;24.40;36.40
37974;DHT22;23796;51.458;7.000;2023-06-04T15:31:45;24.30;37.00
37974;DHT22;23796;51.458;7.000;2023-06-04T15:34:11;24.20;36.20
37974;DHT22;23796;51.458;7.000;2023-06-04T15:36:39;24.30;36.80
37974;DHT22;23796;51.458;7.000;2023-06-04T15:39:05;24.20;36.30
37974;DHT22;23796;51.458;7.000;2023-06-04T15:41:30;24.40;36.40
37974;DHT22;23796;51.458;7.000;2023-06-04T15:43:56;24.50;36.60
37974;DHT22;23796;51.458;7.000;2023-06-04T15:46:25;24.60;36.80